Map

Track Data

SID SEASON NUMBER BASIN SUBBASIN NAME ISO_TIME NATURE LAT LON WMO_WIND WMO_PRES WMO_AGENCY TRACK_TYPE DIST2LAND LANDFALL IFLAG USA_AGENCY USA_ATCF_ID USA_LAT USA_LON USA_RECORD USA_STATUS USA_WIND USA_PRES USA_SSHS USA_R34_NE USA_R34_SE USA_R34_SW USA_R34_NW USA_R50_NE USA_R50_SE USA_R50_SW USA_R50_NW USA_R64_NE USA_R64_SE USA_R64_SW USA_R64_NW USA_POCI USA_ROCI USA_RMW USA_EYE TOKYO_LAT TOKYO_LON TOKYO_GRADE TOKYO_WIND TOKYO_PRES TOKYO_R50_DIR TOKYO_R50_LONG TOKYO_R50_SHORT TOKYO_R30_DIR TOKYO_R30_LONG TOKYO_R30_SHORT TOKYO_LAND CMA_LAT CMA_LON CMA_CAT CMA_WIND CMA_PRES HKO_LAT HKO_LON HKO_CAT HKO_WIND HKO_PRES NEWDELHI_LAT NEWDELHI_LON NEWDELHI_GRADE NEWDELHI_WIND NEWDELHI_PRES NEWDELHI_CI NEWDELHI_DP NEWDELHI_POCI REUNION_LAT REUNION_LON REUNION_TYPE REUNION_WIND REUNION_PRES REUNION_TNUM REUNION_CI REUNION_RMW REUNION_R34_NE REUNION_R34_SE REUNION_R34_SW REUNION_R34_NW REUNION_R50_NE REUNION_R50_SE REUNION_R50_SW REUNION_R50_NW REUNION_R64_NE REUNION_R64_SE REUNION_R64_SW REUNION_R64_NW BOM_LAT BOM_LON BOM_TYPE BOM_WIND BOM_PRES BOM_TNUM BOM_CI BOM_RMW BOM_R34_NE BOM_R34_SE BOM_R34_SW BOM_R34_NW BOM_R50_NE BOM_R50_SE BOM_R50_SW BOM_R50_NW BOM_R64_NE BOM_R64_SE BOM_R64_SW BOM_R64_NW BOM_ROCI BOM_POCI BOM_EYE BOM_POS_METHOD BOM_PRES_METHOD NADI_LAT NADI_LON NADI_CAT NADI_WIND NADI_PRES WELLINGTON_LAT WELLINGTON_LON WELLINGTON_WIND WELLINGTON_PRES DS824_LAT DS824_LON DS824_STAGE DS824_WIND DS824_PRES TD9636_LAT TD9636_LON TD9636_STAGE TD9636_WIND TD9636_PRES TD9635_LAT TD9635_LON TD9635_WIND TD9635_PRES TD9635_ROCI NEUMANN_LAT NEUMANN_LON NEUMANN_CLASS NEUMANN_WIND NEUMANN_PRES MLC_LAT MLC_LON MLC_CLASS MLC_WIND MLC_PRES USA_GUST BOM_GUST BOM_GUST_PER REUNION_GUST REUNION_GUST_PER USA_SEAHGT USA_SEARAD_NE USA_SEARAD_SE USA_SEARAD_SW USA_SEARAD_NW STORM_SPEED STORM_DIR
1997125S08079 1997 29 SI MM RHONDA 1997-05-04 12:00:00 TS -8.10000 79.4000 main 1574 1574 O___________O_ jtwc_sh SH361997 -8.10000 79.4000 15 -1 -8.10000 79.4000 TC 15 4 285
1997125S08079 1997 29 SI MM RHONDA 1997-05-04 15:00:00 TS -8.04752 79.2000 main 1565 1565 P___________P_ SH361997 -8.04752 79.2000 15 -1 -8.04752 79.2000 TC 15 4 284
1997125S08079 1997 29 SI MM RHONDA 1997-05-04 18:00:00 TS -8.00000 79.0000 main 1567 1567 O___________O_ jtwc_sh SH361997 -8.00000 79.0000 15 -1 -8.00000 79.0000 TC 15 4 283
1997125S08079 1997 29 SI MM RHONDA 1997-05-04 21:00:00 TS -7.95749 78.8000 main 1570 1559 P___________P_ SH361997 -7.95749 78.8000 15 -1 -7.95749 78.8000 TC 15 4 284
1997125S08079 1997 29 SI MM RHONDA 1997-05-05 00:00:00 TS -7.90000 78.6000 main 1562 1552 O___________O_ jtwc_sh SH361997 -7.90000 78.6000 15 -1 -7.90000 78.6000 TC 15 4 290
1997125S08079 1997 29 SI MM RHONDA 1997-05-05 03:00:00 TS -7.80750 78.3925 main 1554 1545 P___________P_ SH361997 -7.80750 78.3925 15 -1 -7.80750 78.3925 TC 15 4 297
1997125S08079 1997 29 SI MM RHONDA 1997-05-05 06:00:00 TS -7.70000 78.2000 main 1547 1538 O___________O_ jtwc_sh SH361997 -7.70000 78.2000 15 -1 -7.70000 78.2000 TC 15 4 301
1997125S08079 1997 29 SI MM RHONDA 1997-05-05 09:00:00 TS -7.59999 78.0425 main 1540 1529 P___________P_ SH361997 -7.59999 78.0425 15 -1 -7.59999 78.0425 TC 15 4 304
1997125S08079 1997 29 SI MM RHONDA 1997-05-05 12:00:00 TS -7.50000 77.9000 main 1531 1522 O___________O_ jtwc_sh SH361997 -7.50000 77.9000 15 -1 -7.50000 77.9000 TC 15 3 306
1997125S08079 1997 29 SI MM RHONDA 1997-05-05 15:00:00 TS -7.39998 77.7650 main 1522 1513 P___________P_ SH361997 -7.39998 77.7650 15 -1 -7.39998 77.7650 TC 15 4 304
1997125S08079 1997 29 SI MM RHONDA 1997-05-05 18:00:00 TS -7.30000 77.6000 main 1516 1507 O___________O_ jtwc_sh SH361997 -7.30000 77.6000 15 -1 -7.30000 77.6000 TC 15 4 298
1997125S08079 1997 29 SI MM RHONDA 1997-05-05 21:00:00 TS -7.19251 77.3650 main 1510 1504 P___________P_ SH361997 -7.19251 77.3650 15 -1 -7.19251 77.3650 TC 15 5 292
1997125S08079 1997 29 SI MM RHONDA 1997-05-06 00:00:00 TS -7.10000 77.1000 main 1507 1502 O___________O_ jtwc_sh SH361997 -7.10000 77.1000 15 -1 -7.10000 77.1000 TC 15 5 287
1997125S08079 1997 29 SI MM RHONDA 1997-05-06 03:00:00 TS -7.03499 76.8500 main 1502 1502 P___________P_ SH361997 -7.03499 76.8500 15 -1 -7.03499 76.8500 TC 15 5 281
1997125S08079 1997 29 SI MM RHONDA 1997-05-06 06:00:00 TS -7.00000 76.6000 main 1512 1512 O___________O_ jtwc_sh SH361997 -7.00000 76.6000 15 -1 -7.00000 76.6000 TC 15 5 277
1997125S08079 1997 29 SI MM RHONDA 1997-05-06 09:00:00 TS -6.97001 76.3350 main 1522 1522 P___________P_ SH361997 -6.97001 76.3350 15 -1 -6.97001 76.3350 TC 15 5 270
1997125S08079 1997 29 SI MM RHONDA 1997-05-06 12:00:00 TS -7.00000 76.1000 main 1529 1529 O___________O_ jtwc_sh SH361997 -7.00000 76.1000 15 -1 -7.00000 76.1000 TC 15 4 250
1997125S08079 1997 29 SI MM RHONDA 1997-05-06 15:00:00 TS -7.11998 75.9275 main 1547 1547 P___________P_ SH361997 -7.11998 75.9275 15 -1 -7.11998 75.9275 TC 15 4 225
1997125S08079 1997 29 SI MM RHONDA 1997-05-06 18:00:00 TS -7.30000 75.8000 main 1571 1571 O___________O_ jtwc_sh SH361997 -7.30000 75.8000 15 -1 -7.30000 75.8000 TC 15 5 212
1997125S08079 1997 29 SI MM RHONDA 1997-05-06 21:00:00 TS -7.50000 75.6850 main 1596 1596 P___________P_ SH361997 -7.50000 75.6850 15 -1 -7.50000 75.6850 TC 15 4 206
1997125S08079 1997 29 SI MM RHONDA 1997-05-07 00:00:00 TS -7.70000 75.6000 main 1621 1621 O___________O_ jtwc_sh SH361997 -7.70000 75.6000 15 -1 -7.70000 75.6000 TC 15 4 202
1997125S08079 1997 29 SI MM RHONDA 1997-05-07 03:00:00 TS -7.85750 75.5425 main 1646 1646 P___________P_ SH361997 -7.85750 75.5425 15 -1 -7.85750 75.5425 TC 15 3 197
1997125S08079 1997 29 SI MM RHONDA 1997-05-07 06:00:00 TS -8.00000 75.5000 main 1656 1656 O___________O_ jtwc_sh SH361997 -8.00000 75.5000 15 -1 -8.00000 75.5000 TC 15 3 200
1997125S08079 1997 29 SI MM RHONDA 1997-05-07 09:00:00 TS -8.14250 75.4350 main 1671 1671 P___________P_ SH361997 -8.14250 75.4350 15 -1 -8.14250 75.4350 TC 15 3 197
1997125S08079 1997 29 SI MM RHONDA 1997-05-07 12:00:00 TS -8.30000 75.4000 main 1692 1692 O___________O_ jtwc_sh SH361997 -8.30000 75.4000 15 -1 -8.30000 75.4000 TC 15 4 184
1997125S08079 1997 29 SI MM RHONDA 1997-05-07 15:00:00 TS -8.49999 75.4200 main 1713 1713 P___________P_ SH361997 -8.49999 75.4200 15 -1 -8.49999 75.4200 TC 15 4 167
1997125S08079 1997 29 SI MM RHONDA 1997-05-07 18:00:00 TS -8.70000 75.5000 main 1731 1731 O___________O_ jtwc_sh SH361997 -8.70000 75.5000 15 -1 -8.70000 75.5000 TC 15 4 150
1997125S08079 1997 29 SI MM RHONDA 1997-05-07 21:00:00 TS -8.85000 75.6275 main 1738 1738 P___________P_ SH361997 -8.85000 75.6275 15 -1 -8.85000 75.6275 TC 15 4 136
1997125S08079 1997 29 SI MM RHONDA 1997-05-08 00:00:00 TS -9.00000 75.8000 main 1752 1752 O___________O_ jtwc_sh SH361997 -9.00000 75.8000 15 -1 -9.00000 75.8000 TC 15 5 136
1997125S08079 1997 29 SI MM RHONDA 1997-05-08 03:00:00 TS -9.19995 75.9700 main 1767 1767 P___________P_ SH361997 -9.19995 75.9700 17 -1 -9.19995 75.9700 TC 17 6 135
1997125S08079 1997 29 SI MM RHONDA 1997-05-08 06:00:00 TS -9.40000 76.2000 main 1782 1779 O___________O_ jtwc_sh SH361997 -9.40000 76.2000 20 -1 -9.40000 76.2000 TC 20 6 124
1997125S08079 1997 29 SI MM RHONDA 1997-05-08 09:00:00 TS -9.55744 76.5051 main 1795 1789 P___________P_ SH361997 -9.55744 76.5051 20 -1 -9.55744 76.5051 TC 20 8 114
1997125S08079 1997 29 SI MM RHONDA 1997-05-08 12:00:00 TS -9.70000 76.9000 main 1795 1793 O___________O_ jtwc_sh SH361997 -9.70000 76.9000 20 -1 -9.70000 76.9000 TC 20 9 109
1997125S08079 1997 29 SI MM RHONDA 1997-05-08 15:00:00 TS -9.84990 77.3551 main 1794 1794 P___________P_ SH361997 -9.84990 77.3551 20 -1 -9.84990 77.3551 TC 20 10 107
1997125S08079 1997 29 SI MM RHONDA 1997-05-08 18:00:00 TS -10.0000 77.9000 main 1806 1803 O___________O_ jtwc_sh SH361997 -10.0000 77.9000 20 -1 -10.0000 77.9000 TC 20 12 105
1997125S08079 1997 29 SI MM RHONDA 1997-05-08 21:00:00 TS -10.1499 78.5201 main 1807 1807 P___________P_ SH361997 -10.1499 78.5201 20 -1 -10.1499 78.5201 TC 20 13 103
1997125S08079 1997 29 SI MM RHONDA 1997-05-09 00:00:00 TS -10.3000 79.2000 main 1821 1820 O___________O_ jtwc_sh SH361997 -10.3000 79.2000 20 -1 -10.3000 79.2000 TC 20 14 103
1997125S08079 1997 29 SI MM RHONDA 1997-05-09 03:00:00 TS -10.4498 79.8851 main 1828 1828 P___________P_ SH361997 -10.4498 79.8851 20 -1 -10.4498 79.8851 TC 20 14 102
1997125S08079 1997 29 SI MM RHONDA 1997-05-09 06:00:00 TS -10.6000 80.6000 main 1848 1848 O___________O_ jtwc_sh SH361997 -10.6000 80.6000 20 -1 -10.6000 80.6000 TC 20 15 102
1997125S08079 1997 29 SI MM RHONDA 1997-05-09 09:00:00 TS -10.7499 81.3426 main 1861 1861 P___________P_ SH361997 -10.7499 81.3426 20 -1 -10.7499 81.3426 TC 20 15 102
1997125S08079 1997 29 SI MM RHONDA 1997-05-09 12:00:00 TS -10.9000 82.1000 main 1889 1889 O___________O_ jtwc_sh SH361997 -10.9000 82.1000 20 -1 -10.9000 82.1000 TC 20 15 101
1997125S08079 1997 29 SI MM RHONDA 1997-05-09 15:00:00 TS -11.0499 82.8650 main 1910 1910 P___________P_ SH361997 -11.0499 82.8650 22 -1 -11.0499 82.8650 TC 22 15 102
1997125S08079 1997 29 SI MM RHONDA 1997-05-09 18:00:00 TS -11.2000 83.6000 main 1944 1944 O___________O_ jtwc_sh SH361997 -11.2000 83.6000 25 -1 -11.2000 83.6000 TC 25 14 103
1997125S08079 1997 29 SI MM RHONDA 1997-05-09 21:00:00 TS -11.3648 84.2725 main 1944 1896 P___________P_ SH361997 -11.3648 84.2725 25 -1 -11.3648 84.2725 TC 25 13 103
1997125S08079 1997 29 SI MM RHONDA 1997-05-10 00:00:00 TS -11.5000 84.9000 main 1896 1887 O___________O_ jtwc_sh SH361997 -11.5000 84.9000 25 -1 -11.5000 84.9000 TC 25 11 98
1997125S08079 1997 29 SI MM RHONDA 1997-05-10 01:00:00 TS -11.4740 85.0361 main 1887 1860 P_____O_____P_ SH361997 -11.5332 85.1031 25 -1 -11.0000 84.5000 20 25 1000 2.00000 242 3 5 -11.5332 85.1031 TC 25 9 85
1997125S08079 1997 29 SI MM RHONDA 1997-05-10 03:00:00 TS -11.4595 85.3735 main 1851 1800 P_____P_____P_ SH361997 -11.5798 85.5000 25 -1 -10.9785 84.8673 20 25 999 242 -11.5798 85.5000 TC 25 10 87
1997125S08079 1997 29 SI MM RHONDA 1997-05-10 06:00:00 TS -11.4238 85.9191 main 1800 1748 O_____P_____O_ jtwc_sh SH361997 -11.6000 86.1000 25 -1 -10.9540 85.4367 20 27 999 242 -11.6000 86.1000 TC 25 11 85
1997125S08079 1997 29 SI MM RHONDA 1997-05-10 09:00:00 TS -11.3601 86.5129 main 1748 1689 P_____P_____P_ SH361997 -11.5649 86.7426 27 -1 -10.9504 86.0536 20 28 998 242 -11.5649 86.7426 TC 27 12 86
1997125S08079 1997 29 SI MM RHONDA 1997-05-10 12:00:00 TS -11.3268 87.1823 main 1681 1664 O_____P_____O_ jtwc_sh SH361997 -11.5000 87.4000 30 -1 -10.9804 86.7469 20 29 998 242 -11.5000 87.4000 TC 30 13 87
1997125S08079 1997 29 SI MM RHONDA 1997-05-10 13:00:00 TS -11.3187 87.4129 main 1664 1630 P_____O_____P_ SH361997 -11.4780 87.6193 30 -1 -11.0000 87.0000 20 30 998 2.50000 242 3 5 -11.4780 87.6193 TC 30 14 88
1997125S08079 1997 29 SI MM RHONDA 1997-05-10 15:00:00 TS -11.3083 87.8850 main 1622 1565 P_____P_____P_ SH361997 -11.4349 88.0576 32 -1 -11.0550 87.5400 20 30 997 242 -11.4349 88.0576 TC 32 14 90
1997125S08079 1997 29 SI MM RHONDA 1997-05-10 18:00:00 TS -11.3229 88.5965 main 1565 1518 O_____P_____O_ jtwc_sh SH361997 -11.4000 88.7000 35 0 -11.1688 88.3896 20 32 996 242 -11.4000 88.7000 TC 35 14 93
1997125S08079 1997 29 SI MM RHONDA 1997-05-10 21:00:00 TS -11.3920 89.3044 main 1518 1480 P_____P_____P_ SH361997 -11.4351 89.3524 37 0 -11.3060 89.2085 20 33 996 242 -11.4351 89.3524 TC 37 13 97
1997125S08079 1997 29 SI MM RHONDA 1997-05-11 00:00:00 TS -11.4840 89.9028 main 1480 1466 O_____P_____O_ jtwc_sh SH361997 -11.5000 89.9000 40 0 -11.4519 89.9084 20 34 995 242 -11.5000 89.9000 TC 40 11 99
1997125S08079 1997 29 SI WA RHONDA 1997-05-11 01:00:00 TS -11.5110 90.0597 35 995 bom main 1466 1458 P_____O_____P_ SH361997 -11.5165 90.0395 40 0 -11.5000 90.1000 30 35 995 3.00000 242 3 5 -11.5165 90.0395 TC 40 8 102
1997125S08079 1997 29 SI WA RHONDA 1997-05-11 03:00:00 TS -11.5661 90.3069 main 1460 1438 P_____P_____P_ SH361997 -11.5498 90.2600 42 0 -11.5985 90.4006 30 36 993 242 -11.5498 90.2600 TC 42 6 105
1997125S08079 1997 29 SI WA RHONDA 1997-05-11 06:00:00 TS -11.6483 90.5744 main 1438 1433 O_____P_____O_ jtwc_sh SH361997 -11.6000 90.5000 45 0 -11.7448 90.7232 30 37 992 242 -11.6000 90.5000 TC 45 5 108
1997125S08079 1997 29 SI WA RHONDA 1997-05-11 09:00:00 TS -11.7227 90.7904 main 1433 1426 P_____P_____P_ SH361997 -11.6499 90.7150 45 0 -11.8682 90.9411 30 39 990 242 -11.6499 90.7150 TC 45 4 109
1997125S08079 1997 29 SI WA RHONDA 1997-05-11 10:00:00 TS -11.7444 90.8517 40 990 bom main 1426 1426 P_____O_____P_ SH361997 -11.6666 90.7775 45 0 -11.9000 91.0000 30 40 990 3.00000 242 3 5 -11.6666 90.7775 TC 45 4 107
1997125S08079 1997 29 SI WA RHONDA 1997-05-11 12:00:00 TS -11.7793 90.9749 main 1428 1421 O_____P_____O_ jtwc_sh SH361997 -11.7000 90.9000 45 0 -11.9378 91.1246 30 40 990 242 -11.7000 90.9000 TC 45 4 105
1997125S08079 1997 29 SI WA RHONDA 1997-05-11 15:00:00 TS -11.8220 91.1541 main 1415 1415 P_____P_____P_ SH361997 -11.7425 91.1000 45 0 -11.9809 91.2621 30 40 990 242 -11.7425 91.1000 TC 45 4 105
1997125S08079 1997 29 SI WA RHONDA 1997-05-11 16:00:00 TS -11.8392 91.2111 40 990 bom main 1415 1415 P_____O_____P_ SH361997 -11.7588 91.1667 45 0 -12.0000 91.3000 30 40 990 3.00000 242 3 5 -11.7588 91.1667 TC 45 4 112
1997125S08079 1997 29 SI WA RHONDA 1997-05-11 18:00:00 TS -11.8899 91.3249 main 1417 1411 O_____P_____O_ jtwc_sh SH361997 -11.8000 91.3000 45 0 -12.0696 91.3746 30 41 988 242 -11.8000 91.3000 TC 45 4 117
1997125S08079 1997 29 SI WA RHONDA 1997-05-11 21:00:00 TS -11.9818 91.4948 main 1413 1413 P_____P_____P_ SH361997 -11.8850 91.5075 47 0 -12.1755 91.4693 30 44 985 242 -11.8850 91.5075 TC 47 4 119
1997125S08079 1997 29 SI WA RHONDA 1997-05-11 22:00:00 TS -12.0133 91.5497 45 985 bom main 1413 1407 P_____O_____P_ SH361997 -11.9200 91.5746 48 0 -12.2000 91.5000 30 45 985 3.00000 242 3 5 -11.9200 91.5746 TC 48 4 118
1997125S08079 1997 29 SI WA RHONDA 1997-05-12 00:00:00 TS -12.0667 91.6556 main 1410 1404 O_____P_____O_ jtwc_sh SH361997 -12.0000 91.7000 50 0 -12.2000 91.5667 30 46 985 242 -12.0000 91.7000 TC 50 3 122
1997125S08079 1997 29 SI WA RHONDA 1997-05-12 03:00:00 TS -12.1579 91.7889 main 1413 1413 P_____P_____P_ SH361997 -12.1425 91.8500 52 0 -12.1886 91.6667 30 49 985 242 -12.1425 91.8500 TC 52 3 127
1997125S08079 1997 29 SI WA RHONDA 1997-05-12 04:00:00 TS -12.1964 91.8317 50 985 bom main 1413 1407 P_____O_____P_ SH361997 -12.1945 91.8976 53 0 -12.2000 91.7000 30 50 985 3.50000 242 3 5 -12.1945 91.8976 TC 53 4 136
1997125S08079 1997 29 SI WA RHONDA 1997-05-12 06:00:00 TS -12.2877 91.9194 main 1416 1410 O_____P_____O_ jtwc_sh SH361997 -12.3000 92.0000 55 0 -12.2631 91.7583 30 53 981 242 -12.3000 92.0000 TC 55 4 135
1997125S08079 1997 29 SI WA RHONDA 1997-05-12 07:00:00 TS -12.3333 91.9740 55 980 bom main 1410 1410 P_____O_____P_ SH361997 -12.3500 92.0610 55 0 -12.3000 91.8000 30 55 980 4.00000 242 3 5 -12.3500 92.0610 TC 55 5 127
1997125S08079 1997 29 SI WA RHONDA 1997-05-12 09:00:00 TS -12.4231 92.1049 main 1414 1414 P_____P_____P_ SH361997 -12.4500 92.1925 57 0 -12.3692 91.9298 30 55 980 242 -12.4500 92.1925 TC 57 5 125
1997125S08079 1997 29 SI WA RHONDA 1997-05-12 10:00:00 TS -12.4667 92.1742 55 980 bom main 1417 1411 P_____O_____P_ SH361997 -12.5000 92.2613 58 0 -12.4000 92.0000 30 55 980 4.00000 242 3 5 -12.5000 92.2613 TC 58 5 123
1997125S08079 1997 29 SI WA RHONDA 1997-05-12 12:00:00 TS -12.5449 92.3005 main 1411 1410 O_____P_____O_ jtwc_sh SH361997 -12.6000 92.4000 60 0 -12.4346 92.1014 30 56 978 242 -12.6000 92.4000 TC 60 4 123
1997125S08079 1997 29 SI WA RHONDA 1997-05-12 15:00:00 TS -12.6586 92.4759 main 1420 1420 P_____P_____P_ SH361997 -12.7500 92.5925 62 0 -12.4759 92.2427 30 59 975 242 -12.7500 92.5925 TC 62 4 124
1997125S08079 1997 29 SI WA RHONDA 1997-05-12 16:00:00 TS -12.7000 92.5392 60 975 bom main 1420 1414 P_____O_____P_ SH361997 -12.8000 92.6588 63 0 -12.5000 92.3000 30 60 975 4.00000 242 3 5 -12.8000 92.6588 TC 63 5 123
1997125S08079 1997 29 SI WA RHONDA 1997-05-12 18:00:00 TS -12.7929 92.6872 main 1418 1413 O_____P_____O_ jtwc_sh SH361997 -12.9000 92.8000 65 1 -12.5788 92.4617 30 60 975 242 -12.9000 92.8000 TC 65 6 122
1997125S08079 1997 29 SI WA RHONDA 1997-05-12 21:00:00 TS -12.9464 92.9360 main 1418 1418 P_____P_____P_ SH361997 -13.0500 93.0425 67 1 -12.7391 92.7228 30 60 975 242 -13.0500 93.0425 TC 67 6 123
1997125S08079 1997 29 SI WA RHONDA 1997-05-12 22:00:00 TS -13.0000 93.0186 60 975 bom main 1423 1418 P_____O_____P_ SH361997 -13.1000 93.1279 68 1 -12.8000 92.8000 30 60 975 4.00000 242 3 5 -13.1000 93.1279 TC 68 6 125
1997125S08079 1997 29 SI WA RHONDA 1997-05-13 00:00:00 TS -13.1086 93.1692 main 1423 1423 O_____P_____O_ jtwc_sh SH361997 -13.2000 93.3000 70 1 -12.9259 92.9075 30 61 973 250 -13.2000 93.3000 TC 70 5 128
1997125S08079 1997 29 SI WA RHONDA 1997-05-13 03:00:00 TS -13.2721 93.3822 main 1428 1421 P_____P_____P_ SH361997 -13.3425 93.5501 72 1 -13.1312 93.0464 30 64 970 264 -13.3425 93.5501 TC 72 5 128
1997125S08079 1997 29 SI WA RHONDA 1997-05-13 04:00:00 TS -13.3281 93.4556 65 970 bom main 1421 1421 P_____O_____P_ SH361997 -13.3921 93.6334 73 1 -13.2000 93.1000 40 65 970 4.50000 269 3 5 -13.3921 93.6334 TC 73 6 129
1997125S08079 1997 29 SI WA RHONDA 1997-05-13 06:00:00 TS -13.4444 93.6022 main 1422 1422 O_____P_____O_ jtwc_sh SH361997 -13.5000 93.8000 75 1 -13.3333 93.2065 40 71 966 269 -13.5000 93.8000 TC 75 6 128
1997125S08079 1997 29 SI WA RHONDA 1997-05-13 07:00:00 TS -13.5020 93.6837 75 965 bom main 1423 1415 P_____O_____P_ SH361997 -13.5530 93.8755 75 1 -13.4000 93.3000 40 75 965 4.50000 269 3 5 -13.5530 93.8755 TC 75 7 122
1997125S08079 1997 29 SI WA RHONDA 1997-05-13 09:00:00 TS -13.6218 93.8893 main 1416 1416 P_____P_____P_ SH361997 -13.6699 94.0277 77 1 -13.5256 93.6125 40 78 961 269 -13.6699 94.0277 TC 77 7 121
1997125S08079 1997 29 SI WA RHONDA 1997-05-13 10:00:00 TS -13.6916 94.0066 80 960 bom main 1418 1411 P_____O_____P_ SH361997 -13.7374 94.1098 78 1 -13.6000 93.8000 40 80 960 5.00000 269 3 5 -13.7374 94.1098 TC 78 9 125
1997125S08079 1997 29 SI WA RHONDA 1997-05-13 12:00:00 TS -13.8654 94.2535 main 1413 1406 O_____P_____O_ jtwc_sh SH361997 -13.9000 94.3000 80 1 -13.7963 94.1606 40 80 958 269 -13.9000 94.3000 TC 80 10 128
1997125S08079 1997 29 SI WA RHONDA 1997-05-13 15:00:00 TS -14.2023 94.6813 main 1410 1410 P_____P_____P_ SH361997 -14.2200 94.6626 85 2 -14.1671 94.7186 40 80 955 269 -14.2200 94.6626 TC 85 11 129
1997125S08079 1997 29 SI WA RHONDA 1997-05-13 16:00:00 TS -14.3283 94.8342 80 955 bom main 1412 1400 P_____O_____P_ SH361997 -14.3424 94.8013 86 2 -14.3000 94.9000 40 80 955 5.00000 269 3 5 -14.3424 94.8013 TC 86 12 130
1997125S08079 1997 29 SI WA RHONDA 1997-05-13 18:00:00 TS -14.5864 95.1519 main 1398 1386 O_____P_____O_ jtwc_sh SH361997 -14.6000 95.1000 90 2 -14.5592 95.2556 40 81 953 269 -14.6000 95.1000 TC 90 12 130
1997125S08079 1997 29 SI WA RHONDA 1997-05-13 21:00:00 TS -14.9782 95.6404 main 1393 1384 P_____P_____P_ SH361997 -14.9850 95.5851 95 2 -14.9645 95.7510 40 84 950 269 -14.9850 95.5851 TC 95 12 130
1997125S08079 1997 29 SI WA RHONDA 1997-05-13 22:00:00 TS -15.1133 95.8040 85 950 bom main 1384 1375 P_____O_____P_ SH361997 -15.1200 95.7559 96 3 -15.1000 95.9000 40 85 950 5.00000 269 3 5 -15.1200 95.7559 TC 96 12 132
1997125S08079 1997 29 SI WA RHONDA 1997-05-14 00:00:00 TS -15.3889 96.1206 main 1383 1375 O_____P_____O_ jtwc_sh SH361997 -15.4000 96.1000 100 3 -15.3666 96.1619 40 88 946 269 -15.4000 96.1000 TC 100 12 132
1997125S08079 1997 29 SI WA RHONDA 1997-05-14 01:00:00 TS -15.5295 96.2761 90 945 bom main 1375 1375 P_____O_____P_ SH361997 -15.5442 96.2642 100 3 -15.5000 96.3000 40 90 945 5.50000 269 3 5 -15.5442 96.2642 TC 100 13 133
1997125S08079 1997 29 SI WA RHONDA 1997-05-14 03:00:00 TS -15.8145 96.6018 main 1376 1376 P_____P_____P_ SH361997 -15.8423 96.5927 100 3 -15.7587 96.6201 40 93 938 269 -15.8423 96.5927 TC 100 13 132
1997125S08079 1997 29 SI WA RHONDA 1997-05-14 04:00:00 TS -15.9629 96.7727 95 935 bom main 1378 1370 P_____O_____P_ SH361997 -15.9944 96.7590 100 3 -15.9000 96.8000 40 95 935 5.50000 269 8 4 5 -15.9944 96.7590 TC 100 14 132
1997125S08079 1997 29 SI WA RHONDA 1997-05-14 06:00:00 TS -16.2733 97.1316 main 1381 1374 O_____P_____O_ jtwc_sh SH361997 -16.3000 97.1000 100 3 -16.2200 97.1946 40 95 938 269 -16.3000 97.1000 TC 100 14 132
1997125S08079 1997 29 SI WA RHONDA 1997-05-14 07:00:00 TS -16.4333 97.3185 95 940 bom main 1376 1376 P_____O_____P_ SH361997 -16.4500 97.2777 100 3 -16.4000 97.4000 40 95 940 5.50000 269 8 4 5 -16.4500 97.2777 TC 100 15 132
1997125S08079 1997 29 SI WA RHONDA 1997-05-14 09:00:00 TS -16.7680 97.6952 main 1385 1379 P_____P_____P_ SH361997 -16.7499 97.6427 100 3 -16.8041 97.8000 40 91 943 269 -16.7499 97.6427 TC 100 15 133
1997125S08079 1997 29 SI WA RHONDA 1997-05-14 10:00:00 TS -16.9333 97.8854 90 945 bom main 1381 1384 P_____O_____P_ SH361997 -16.8999 97.8281 100 3 -17.0000 98.0000 40 90 945 5.50000 269 9 4 5 -16.8999 97.8281 TC 100 14 131
1997125S08079 1997 29 SI WA RHONDA 1997-05-14 12:00:00 TS -17.2349 98.2637 main 1385 1385 O_____P_____O_ jtwc_sh SH361997 -17.2000 98.2000 100 3 -17.3048 98.3911 40 88 946 269 -17.2000 98.2000 TC 100 14 128
1997125S08079 1997 29 SI WA RHONDA 1997-05-14 15:00:00 TS -17.6534 98.8350 main 1404 1393 P_____P_____P_ SH361997 -17.6424 98.7578 97 3 -17.6753 98.9894 40 85 949 269 -17.6424 98.7578 TC 97 14 128
1997125S08079 1997 29 SI WA RHONDA 1997-05-14 16:00:00 TS -17.7947 99.0277 85 950 bom main 1403 1398 P_____O_____P_ SH361997 -17.7920 98.9415 96 3 -17.8000 99.2000 40 85 950 5.00000 269 3 5 -17.7920 98.9415 TC 96 14 129
1997125S08079 1997 29 SI WA RHONDA 1997-05-14 18:00:00 TS -18.1000 99.4222 main 1413 1408 O_____P_____O_ jtwc_sh SH361997 -18.1000 99.3000 95 2 -18.1001 99.6666 40 83 951 269 -18.1000 99.3000 TC 95 15 132
1997125S08079 1997 29 SI WA RHONDA 1997-05-14 21:00:00 TS -18.5949 99.9779 main 1432 1432 P_____P_____P_ SH361997 -18.6145 99.7778 85 2 -18.5557 100.378 40 80 954 269 -18.6145 99.7778 TC 85 14 133
1997125S08079 1997 29 SI WA RHONDA 1997-05-14 22:00:00 TS -18.7563 100.161 80 955 bom main 1441 1419 P_____O_____P_ SH361997 -18.7845 99.9408 81 1 -18.7000 100.600 40 80 955 5.00000 269 3 5 -18.7845 99.9408 TC 81 14 131
1997125S08079 1997 29 SI WA RHONDA 1997-05-15 00:00:00 TS -19.0505 100.532 main 1415 1392 O_____P_____O_ jtwc_sh SH361997 -19.1000 100.300 75 1 -18.9516 100.995 40 76 961 269 -19.1000 100.300 TC 75 14 128
1997125S08079 1997 29 SI WA RHONDA 1997-05-15 01:00:00 TS -19.1856 100.732 75 965 bom main 1392 1345 P_____O_____P_ SH361997 -19.2284 100.498 73 1 -19.1000 101.200 40 75 965 4.50000 269 3 5 -19.2284 100.498 TC 73 15 125
1997125S08079 1997 29 SI WA RHONDA 1997-05-15 03:00:00 TS -19.4681 101.175 main 1331 1308 P_____P_____P_ SH361997 -19.4570 100.933 70 1 -19.4903 101.658 40 68 968 269 -19.4570 100.933 TC 70 15 123
1997125S08079 1997 29 SI WA RHONDA 1997-05-15 04:00:00 TS -19.6111 101.415 65 970 bom main 1308 1248 P_____O_____P_ SH361997 -19.5667 101.173 68 1 -19.7000 101.900 40 65 970 4.50000 269 3 5 -19.5667 101.173 TC 68 17 121
1997125S08079 1997 29 SI WA RHONDA 1997-05-15 06:00:00 TS -19.8909 101.930 main 1248 1156 O_____P_____O_ jtwc_sh SH361997 -19.8000 101.700 65 1 -20.0726 102.390 40 63 971 269 -19.8000 101.700 TC 65 18 120
1997125S08079 1997 29 SI WA RHONDA 1997-05-15 09:00:00 TS -20.3564 102.781 main 1143 1110 P_____P_____P_ SH361997 -20.2273 102.598 62 0 -20.6147 103.147 40 60 974 269 -20.2273 102.598 TC 62 19 120
1997125S08079 1997 29 SI WA RHONDA 1997-05-15 10:00:00 TS -20.5207 103.083 60 975 bom main 1110 1052 P_____O_____P_ SH361997 -20.3810 102.924 61 0 -20.8000 103.400 30 60 975 4.00000 269 3 5 -20.3810 102.924 TC 61 20 121
1997125S08079 1997 29 SI WA RHONDA 1997-05-15 12:00:00 TS -20.8656 103.693 main 1039 939 O_____P_____O_ jtwc_sh SH361997 -20.7000 103.600 60 0 -21.1969 103.879 30 58 976 269 -20.7000 103.600 TC 60 20 120
1997125S08079 1997 29 SI WA RHONDA 1997-05-15 15:00:00 TS -21.3758 104.643 main 937 892 P_____P_____P_ SH361997 -21.1624 104.651 57 0 -21.8026 104.628 30 55 979 269 -21.1624 104.651 TC 57 21 120
1997125S08079 1997 29 SI WA RHONDA 1997-05-15 16:00:00 TS -21.5530 104.971 55 980 bom main 892 826 P_____O_____P_ SH361997 -21.3295 105.006 56 0 -22.0000 104.900 30 55 980 4.00000 269 3 5 -21.3295 105.006 TC 56 22 121
1997125S08079 1997 29 SI WA RHONDA 1997-05-15 18:00:00 TS -21.9273 105.642 main 826 718 O_____P_____O_ jtwc_sh SH361997 -21.7000 105.700 55 0 -22.3818 105.526 30 51 981 269 -21.7000 105.700 TC 55 22 123
1997125S08079 1997 29 SI WA RHONDA 1997-05-15 21:00:00 TS -22.5755 106.644 main 718 674 P_____P_____P_ SH361997 -22.4000 106.717 50 0 -22.9267 106.498 30 46 984 269 -22.4000 106.717 TC 50 22 126
1997125S08079 1997 29 SI WA RHONDA 1997-05-15 22:00:00 TS -22.7955 106.955 45 985 bom main 674 614 P_____O_____P_ SH361997 -22.6432 107.032 48 0 -23.1000 106.800 30 45 985 3.00000 269 3 5 -22.6432 107.032 TC 48 21 128
1997125S08079 1997 29 SI WA RHONDA 1997-05-16 00:00:00 TS -23.2117 107.516 main 614 579 O_____P_____O_ jtwc_sh SH361997 -23.1000 107.600 45 0 -23.4350 107.347 30 41 988 269 -23.1000 107.600 TC 45 19 129
1997125S08079 1997 29 SI WA RHONDA 1997-05-16 01:00:00 TS -23.3979 107.767 40 990 bom main 579 533 P_____O_____P_ SH361997 -23.2969 107.851 44 0 -23.6000 107.600 30 40 990 3.00000 269 3 5 -23.2969 107.851 TC 44 17 130
1997125S08079 1997 29 SI WA RHONDA 1997-05-16 03:00:00 TS -23.7456 108.213 main 533 510 P_____P_____P_ SH361997 -23.6518 108.283 42 0 -23.9332 108.072 30 36 993 251 -23.6518 108.283 TC 42 16 131
1997125S08079 1997 29 SI WA RHONDA 1997-05-16 04:00:00 TS -23.9077 108.414 35 995 bom main 510 466 P_____O_____P_ SH361997 -23.8116 108.470 41 0 -24.1000 108.300 30 35 995 3.00000 242 3 5 -23.8116 108.470 TC 41 14 132
1997125S08079 1997 29 SI WA RHONDA 1997-05-16 06:00:00 TS -24.2217 108.799 main 466 445 O_____P_____O_ jtwc_sh SH361997 -24.1000 108.800 40 0 -24.4650 108.798 30 31 996 242 -24.1000 108.800 TC 40 14 131
1997125S08079 1997 29 SI WA RHONDA 1997-05-16 07:00:00 TS -24.3592 108.975 30 998 bom main 445 425 P_____O_____P_ SH361997 -24.2389 108.962 39 0 -24.6000 109.000 20 30 998 2.50000 242 3 5 -24.2389 108.962 TC 39 10 130
1997125S08079 1997 29 SI WA RHONDA 1997-05-16 09:00:00 TS -24.5542 109.238 main 425 415 P_____P_____P_ SH361997 -24.4872 109.245 37 0 -24.6883 109.222 20 26 999 242 -24.4872 109.245 TC 37 9 129
1997125S08079 1997 29 SI WA RHONDA 1997-05-16 10:00:00 TS -24.6324 109.348 25 1000 bom main 415 386 P_____O_____P_ SH361997 -24.5985 109.371 36 0 -24.7000 109.300 20 25 1000 2.00000 242 3 5 -24.5985 109.371 TC 36 8 128
1997125S08079 1997 29 SI WA RHONDA 1997-05-16 12:00:00 TS -24.7915 109.569 main 386 377 O_____P_____O_ jtwc_sh SH361997 -24.8000 109.600 35 0 -24.7746 109.508 20 25 1000 224 -24.8000 109.600 TC 35 8 128
1997125S08079 1997 29 SI WA RHONDA 1997-05-16 13:00:00 TS -24.8631 109.674 25 1000 bom main 377 367 P_____O_____P_ SH361997 -24.8947 109.712 34 0 -24.8000 109.600 20 25 1000 2.00000 215 3 5 -24.8947 109.712 TC 34 6 126
1997125S08079 1997 29 SI WA RHONDA 1997-05-16 15:00:00 TS -24.9784 109.854 main 359 359 P_____P_____P_ SH361997 -25.0648 109.915 32 -1 -24.8054 109.731 20 25 1000 215 -25.0648 109.915 TC 32 6 125
1997125S08079 1997 29 SI WA RHONDA 1997-05-16 16:00:00 TS -25.0294 109.941 25 1000 bom main 359 337 P_____O_____P_ SH361997 -25.1441 110.011 31 -1 -24.8000 109.800 20 25 1000 2.00000 215 3 5 -25.1441 110.011 TC 31 6 120
1997125S08079 1997 29 SI WA RHONDA 1997-05-16 18:00:00 TS -25.1254 110.129 main 337 325 O_____P_____O_ jtwc_sh SH361997 -25.3000 110.200 30 -1 -24.7763 109.987 20 25 1000 215 -25.3000 110.200 TC 30 6 121
1997125S08079 1997 29 SI WA RHONDA 1997-05-16 19:00:00 TS -25.1889 110.235 25 1000 bom main 325 303 P_____O_____P_ SH361997 -25.3833 110.303 30 -1 -24.8000 110.100 20 25 1000 2.00000 215 3 5 -25.3833 110.303 TC 30 8 127
1997125S08079 1997 29 SI WA RHONDA 1997-05-16 21:00:00 TS -25.3560 110.461 main 290 278 P_____P_____P_ SH361997 -25.5500 110.508 30 -1 -24.9679 110.369 20 25 1000 197 -25.5500 110.508 TC 30 8 131
1997125S08079 1997 29 SI WA RHONDA 1997-05-16 22:00:00 TS -25.4555 110.572 25 1000 bom main 278 263 P_____O_____P_ SH361997 -25.6333 110.608 30 -1 -25.1000 110.500 20 25 1000 2.00000 188 3 5 -25.6333 110.608 TC 30 8 140
1997125S08079 1997 29 SI WA RHONDA 1997-05-17 00:00:00 TS -25.6768 110.763 main 253 242 O_____P_____O_ jtwc_sh SH361997 -25.8000 110.800 30 -1 -25.4303 110.690 20 25 1000 188 -25.8000 110.800 TC 30 8 142
1997125S08079 1997 29 SI WA RHONDA 1997-05-17 01:00:00 TS -25.7889 110.859 25 1000 bom main 242 219 P_____O_____P_ SH361997 -25.8833 110.889 30 -1 -25.6000 110.800 20 25 1000 2.00000 188 3 5 -25.8833 110.889 TC 30 8 137
1997125S08079 1997 29 SI WA RHONDA 1997-05-17 03:00:00 TS -25.9866 111.080 main 219 209 P_____P_____P_ SH361997 -26.0499 111.058 30 -1 -25.8599 111.124 20 25 1000 170 -26.0499 111.058 TC 30 9 135
1997125S08079 1997 29 SI WA RHONDA 1997-05-17 04:00:00 TS -26.0888 111.193 25 1000 bom main 209 189 P_____O_____P_ SH361997 -26.1333 111.139 30 -1 -26.0000 111.300 20 25 1000 2.00000 161 3 5 -26.1333 111.139 TC 30 9 140
1997125S08079 1997 29 SI WA RHONDA 1997-05-17 06:00:00 TS -26.3170 111.389 main 189 165 O_____P_____O_ jtwc_sh SH361997 -26.3000 111.300 30 -1 -26.3625 111.625 20 23 1001 152 -26.3000 111.300 TC 30 9 144
1997125S08079 1997 29 SI WA RHONDA 1997-05-17 09:00:00 TS -26.6757 111.676 main 165 165 P_____P_____P_ SH361997 -26.5501 111.547 27 -1 -27.0524 112.060 20 20 1004 138 -26.5501 111.547 TC 27 8 145
1997125S08079 1997 29 SI WA RHONDA 1997-05-17 10:00:00 TS -26.7668 111.745 20 1005 bom main 168 159 P_____O_____P_ SH361997 -26.6334 111.631 26 -1 -27.3000 112.200 20 20 1005 1.00000 134 3 5 -26.6334 111.631 TC 26 3 138
1997125S08079 1997 29 SI WA RHONDA 1997-05-17 12:00:00 TS -26.8000 111.800 main 159 O___________O_ jtwc_sh SH361997 -26.8000 111.800 25 -1 20 -26.8000 111.800 TC 25 2 119

About IBTrACS Database

This database is a web-friendly format of International Best Track Archive for Climate Stewardship (IBTrACS), a global best track data archive curated by NOAA dating back to 1842.

Updated: 2021-12-06